sensor_id;sensor_type;location;lat;lon;timestamp;pressure;altitude;pressure_sealevel;temperature;humidity
49835;BME280;35729;52.090;13.162;2022-10-16T00:01:38;100616.13;;;14.53;88.23
49835;BME280;35729;52.090;13.162;2022-10-16T00:04:07;100613.53;;;14.51;88.28
49835;BME280;35729;52.090;13.162;2022-10-16T00:06:39;100625.94;;;14.49;88.41
49835;BME280;35729;52.090;13.162;2022-10-16T00:09:08;100631.34;;;14.46;88.61
49835;BME280;35729;52.090;13.162;2022-10-16T00:11:38;100635.81;;;14.44;88.83
49835;BME280;35729;52.090;13.162;2022-10-16T00:14:09;100636.81;;;14.41;88.70
49835;BME280;35729;52.090;13.162;2022-10-16T00:16:38;100630.69;;;14.41;88.99
49835;BME280;35729;52.090;13.162;2022-10-16T00:19:07;100624.53;;;14.40;89.05
49835;BME280;35729;52.090;13.162;2022-10-16T00:21:35;100629.81;;;14.40;89.13
49835;BME280;35729;52.090;13.162;2022-10-16T00:24:08;100624.53;;;14.40;89.21
49835;BME280;35729;52.090;13.162;2022-10-16T00:26:38;100637.78;;;14.39;88.93
49835;BME280;35729;52.090;13.162;2022-10-16T00:29:07;100638.63;;;14.39;88.96
49835;BME280;35729;52.090;13.162;2022-10-16T00:31:36;100640.41;;;14.39;89.35
49835;BME280;35729;52.090;13.162;2022-10-16T00:34:04;100643.13;;;14.37;89.14
49835;BME280;35729;52.090;13.162;2022-10-16T00:36:33;100643.97;;;14.38;89.13
49835;BME280;35729;52.090;13.162;2022-10-16T00:39:02;100639.63;;;14.37;89.08
49835;BME280;35729;52.090;13.162;2022-10-16T00:41:34;100642.31;;;14.35;89.10
49835;BME280;35729;52.090;13.162;2022-10-16T00:44:40;100641.50;;;14.33;89.25
49835;BME280;35729;52.090;13.162;2022-10-16T00:46:54;100646.91;;;14.30;89.23
49835;BME280;35729;52.090;13.162;2022-10-16T00:49:23;100654.03;;;14.28;89.65
49835;BME280;35729;52.090;13.162;2022-10-16T00:51:53;100645.31;;;14.26;89.49
49835;BME280;35729;52.090;13.162;2022-10-16T00:54:24;100645.44;;;14.23;89.44
49835;BME280;35729;52.090;13.162;2022-10-16T00:56:53;100650.69;;;14.23;89.76
49835;BME280;35729;52.090;13.162;2022-10-16T00:59:26;100649.00;;;14.22;89.56
49835;BME280;35729;52.090;13.162;2022-10-16T01:01:59;100649.00;;;14.22;89.30
49835;BME280;35729;52.090;13.162;2022-10-16T01:04:32;100648.19;;;14.20;89.82
49835;BME280;35729;52.090;13.162;2022-10-16T01:07:04;100658.75;;;14.20;90.33
49835;BME280;35729;52.090;13.162;2022-10-16T01:09:39;100660.56;;;14.17;89.72
49835;BME280;35729;52.090;13.162;2022-10-16T01:12:15;100658.84;;;14.16;89.89
49835;BME280;35729;52.090;13.162;2022-10-16T01:14:50;100665.00;;;14.17;89.83
49835;BME280;35729;52.090;13.162;2022-10-16T01:17:25;100666.75;;;14.16;90.52
49835;BME280;35729;52.090;13.162;2022-10-16T01:20:11;100665.84;;;14.17;89.82
49835;BME280;35729;52.090;13.162;2022-10-16T01:25:44;100672.91;;;14.17;89.84
49835;BME280;35729;52.090;13.162;2022-10-16T01:28:22;100673.00;;;14.15;90.16
49835;BME280;35729;52.090;13.162;2022-10-16T01:30:57;100673.84;;;14.16;90.13
49835;BME280;35729;52.090;13.162;2022-10-16T01:33:30;100670.38;;;14.14;90.36
49835;BME280;35729;52.090;13.162;2022-10-16T01:36:07;100672.19;;;14.13;90.44
49835;BME280;35729;52.090;13.162;2022-10-16T01:38:39;100682.78;;;14.12;90.18
49835;BME280;35729;52.090;13.162;2022-10-16T01:41:10;100681.06;;;14.11;90.45
49835;BME280;35729;52.090;13.162;2022-10-16T01:43:45;100686.34;;;14.11;90.72
49835;BME280;35729;52.090;13.162;2022-10-16T01:46:18;100689.94;;;14.08;90.49
49835;BME280;35729;52.090;13.162;2022-10-16T01:48:49;100693.50;;;14.07;90.64
49835;BME280;35729;52.090;13.162;2022-10-16T01:51:19;100696.13;;;14.07;90.67
49835;BME280;35729;52.090;13.162;2022-10-16T01:53:51;100690.88;;;14.07;90.60
49835;BME280;35729;52.090;13.162;2022-10-16T01:56:22;100691.72;;;14.08;90.80
49835;BME280;35729;52.090;13.162;2022-10-16T01:58:58;100698.78;;;14.07;90.73
49835;BME280;35729;52.090;13.162;2022-10-16T02:01:31;100691.72;;;14.08;90.79
49835;BME280;35729;52.090;13.162;2022-10-16T02:04:04;100703.16;;;14.08;90.58
49835;BME280;35729;52.090;13.162;2022-10-16T02:06:35;100691.91;;;14.03;90.80
49835;BME280;35729;52.090;13.162;2022-10-16T02:09:04;100698.72;;;14.09;90.70
49835;BME280;35729;52.090;13.162;2022-10-16T02:11:33;100698.72;;;14.09;90.69
49835;BME280;35729;52.090;13.162;2022-10-16T02:14:06;100706.59;;;14.10;90.94
49835;BME280;35729;52.090;13.162;2022-10-16T02:16:36;100711.88;;;14.10;90.75
49835;BME280;35729;52.090;13.162;2022-10-16T02:19:05;100701.31;;;14.10;90.79
49835;BME280;35729;52.090;13.162;2022-10-16T02:21:40;100711.88;;;14.10;90.81
49835;BME280;35729;52.090;13.162;2022-10-16T02:24:14;100699.59;;;14.09;90.45
49835;BME280;35729;52.090;13.162;2022-10-16T02:26:51;100703.16;;;14.08;90.98
49835;BME280;35729;52.090;13.162;2022-10-16T02:29:25;100712.88;;;14.06;90.58
49835;BME280;35729;52.090;13.162;2022-10-16T02:31:57;100718.28;;;14.03;90.56
49835;BME280;35729;52.090;13.162;2022-10-16T02:34:28;100715.75;;;14.00;90.82
49835;BME280;35729;52.090;13.162;2022-10-16T02:37:00;100710.59;;;13.97;90.59
49835;BME280;35729;52.090;13.162;2022-10-16T02:39:32;100714.25;;;13.93;90.76
49835;BME280;35729;52.090;13.162;2022-10-16T02:42:10;100712.63;;;13.89;90.90
49835;BME280;35729;52.090;13.162;2022-10-16T02:44:47;100712.81;;;13.84;90.94
49835;BME280;35729;52.090;13.162;2022-10-16T02:47:15;100716.44;;;13.81;90.77
49835;BME280;35729;52.090;13.162;2022-10-16T02:49:44;100712.16;;;13.77;90.99
49835;BME280;35729;52.090;13.162;2022-10-16T02:52:12;100713.19;;;13.73;90.99
49835;BME280;35729;52.090;13.162;2022-10-16T02:54:40;100714.22;;;13.69;91.18
49835;BME280;35729;52.090;13.162;2022-10-16T02:57:09;100722.19;;;13.67;91.33
49835;BME280;35729;52.090;13.162;2022-10-16T02:59:37;100712.66;;;13.63;91.40
49835;BME280;35729;52.090;13.162;2022-10-16T03:02:08;100718.88;;;13.61;91.55
49835;BME280;35729;52.090;13.162;2022-10-16T03:04:37;100726.97;;;13.56;91.39
49835;BME280;35729;52.090;13.162;2022-10-16T03:07:06;100727.94;;;13.54;91.78
49835;BME280;35729;52.090;13.162;2022-10-16T03:09:34;100732.44;;;13.50;91.72
49835;BME280;35729;52.090;13.162;2022-10-16T03:12:03;100731.69;;;13.46;91.84
49835;BME280;35729;52.090;13.162;2022-10-16T03:14:32;100734.41;;;13.43;92.04
49835;BME280;35729;52.090;13.162;2022-10-16T03:17:00;100732.75;;;13.41;92.21
49835;BME280;35729;52.090;13.162;2022-10-16T03:19:31;100734.59;;;13.39;92.29
49835;BME280;35729;52.090;13.162;2022-10-16T03:22:00;100738.22;;;13.34;92.44
49835;BME280;35729;52.090;13.162;2022-10-16T03:24:28;100746.19;;;13.31;92.56
49835;BME280;35729;52.090;13.162;2022-10-16T03:26:57;100754.16;;;13.30;92.65
49835;BME280;35729;52.090;13.162;2022-10-16T03:29:26;100748.06;;;13.28;92.76
49835;BME280;35729;52.090;13.162;2022-10-16T03:31:54;100758.66;;;13.26;92.91
49835;BME280;35729;52.090;13.162;2022-10-16T03:34:23;100759.56;;;13.25;92.85
49835;BME280;35729;52.090;13.162;2022-10-16T03:36:54;100767.47;;;13.25;93.09
49835;BME280;35729;52.090;13.162;2022-10-16T03:39:23;100768.38;;;13.24;93.33
49835;BME280;35729;52.090;13.162;2022-10-16T03:41:52;100767.53;;;13.24;93.48
49835;BME280;35729;52.090;13.162;2022-10-16T03:44:21;100771.00;;;13.26;93.45
49835;BME280;35729;52.090;13.162;2022-10-16T03:46:49;100767.53;;;13.24;93.66
49835;BME280;35729;52.090;13.162;2022-10-16T03:49:18;100773.63;;;13.26;93.29
49835;BME280;35729;52.090;13.162;2022-10-16T03:51:46;100780.66;;;13.25;94.00
49835;BME280;35729;52.090;13.162;2022-10-16T03:54:17;100773.63;;;13.26;93.85
49835;BME280;35729;52.090;13.162;2022-10-16T03:56:47;100773.56;;;13.27;93.76
49835;BME280;35729;52.090;13.162;2022-10-16T03:59:16;100766.56;;;13.26;93.82
49835;BME280;35729;52.090;13.162;2022-10-16T04:01:44;100776.16;;;13.29;94.02
49835;BME280;35729;52.090;13.162;2022-10-16T04:04:13;100779.63;;;13.29;94.00
49835;BME280;35729;52.090;13.162;2022-10-16T04:06:41;100777.81;;;13.31;94.10
49835;BME280;35729;52.090;13.162;2022-10-16T04:09:10;100794.44;;;13.33;94.10
49835;BME280;35729;52.090;13.162;2022-10-16T04:11:41;100779.50;;;13.34;94.41
49835;BME280;35729;52.090;13.162;2022-10-16T04:14:09;100772.47;;;13.34;94.19
49835;BME280;35729;52.090;13.162;2022-10-16T04:16:38;100770.59;;;13.38;94.00
49835;BME280;35729;52.090;13.162;2022-10-16T04:19:06;100763.56;;;13.39;94.15
49835;BME280;35729;52.090;13.162;2022-10-16T04:21:34;100756.53;;;13.39;94.04
49835;BME280;35729;52.090;13.162;2022-10-16T04:24:03;100758.25;;;13.40;94.10
49835;BME280;35729;52.090;13.162;2022-10-16T04:26:32;100760.81;;;13.42;94.11
49835;BME280;35729;52.090;13.162;2022-10-16T04:29:03;100760.81;;;13.42;93.92
49835;BME280;35729;52.090;13.162;2022-10-16T04:31:32;100761.72;;;13.41;94.42
49835;BME280;35729;52.090;13.162;2022-10-16T04:34:00;100761.72;;;13.41;94.07
49835;BME280;35729;52.090;13.162;2022-10-16T04:36:29;100769.63;;;13.41;94.25
49835;BME280;35729;52.090;13.162;2022-10-16T04:38:58;100778.47;;;13.40;94.23
49835;BME280;35729;52.090;13.162;2022-10-16T04:41:27;100775.88;;;13.38;94.48
49835;BME280;35729;52.090;13.162;2022-10-16T04:43:55;100773.22;;;13.38;94.49
49835;BME280;35729;52.090;13.162;2022-10-16T04:46:26;100775.88;;;13.38;94.35
49835;BME280;35729;52.090;13.162;2022-10-16T04:48:54;100773.25;;;13.36;94.60
49835;BME280;35729;52.090;13.162;2022-10-16T04:51:23;100775.03;;;13.38;94.37
49835;BME280;35729;52.090;13.162;2022-10-16T04:53:53;100769.78;;;13.36;94.48
49835;BME280;35729;52.090;13.162;2022-10-16T04:56:21;100775.03;;;13.38;94.67
49835;BME280;35729;52.090;13.162;2022-10-16T04:58:50;100784.72;;;13.37;94.55
49835;BME280;35729;52.090;13.162;2022-10-16T05:01:18;100791.72;;;13.36;94.73
49835;BME280;35729;52.090;13.162;2022-10-16T05:03:49;100786.50;;;13.35;94.68
49835;BME280;35729;52.090;13.162;2022-10-16T05:06:18;100794.41;;;13.35;94.80
49835;BME280;35729;52.090;13.162;2022-10-16T05:08:46;100796.19;;;13.34;94.85
49835;BME280;35729;52.090;13.162;2022-10-16T05:11:14;100797.09;;;13.33;94.63
49835;BME280;35729;52.090;13.162;2022-10-16T05:13:43;100790.09;;;13.32;94.99
49835;BME280;35729;52.090;13.162;2022-10-16T05:16:11;100787.47;;;13.32;94.90
49835;BME280;35729;52.090;13.162;2022-10-16T05:18:40;100802.38;;;13.32;94.80
49835;BME280;35729;52.090;13.162;2022-10-16T05:21:11;100802.38;;;13.32;94.83
49835;BME280;35729;52.090;13.162;2022-10-16T05:23:39;100798.06;;;13.31;94.91
49835;BME280;35729;52.090;13.162;2022-10-16T05:26:08;100801.59;;;13.30;94.78
49835;BME280;35729;52.090;13.162;2022-10-16T05:28:37;100792.00;;;13.27;94.80
49835;BME280;35729;52.090;13.162;2022-10-16T05:31:06;100799.03;;;13.27;95.13
49835;BME280;35729;52.090;13.162;2022-10-16T05:33:35;100814.06;;;13.25;94.95
49835;BME280;35729;52.090;13.162;2022-10-16T05:36:05;100815.81;;;13.24;94.72
49835;BME280;35729;52.090;13.162;2022-10-16T05:38:37;100807.97;;;13.23;94.91
49835;BME280;35729;52.090;13.162;2022-10-16T05:41:06;100818.50;;;13.23;94.93
49835;BME280;35729;52.090;13.162;2022-10-16T05:43:41;100831.72;;;13.21;95.01
49835;BME280;35729;52.090;13.162;2022-10-16T05:46:16;100833.47;;;13.22;95.12
49835;BME280;35729;52.090;13.162;2022-10-16T05:48:45;100836.16;;;13.20;95.18
49835;BME280;35729;52.090;13.162;2022-10-16T05:51:14;100828.19;;;13.22;95.15
49835;BME280;35729;52.090;13.162;2022-10-16T05:53:45;100829.91;;;13.23;95.15
49835;BME280;35729;52.090;13.162;2022-10-16T05:56:14;100826.41;;;13.23;95.49
49835;BME280;35729;52.090;13.162;2022-10-16T05:58:43;100819.38;;;13.23;95.54
49835;BME280;35729;52.090;13.162;2022-10-16T06:01:14;100814.09;;;13.23;95.54
49835;BME280;35729;52.090;13.162;2022-10-16T06:03:43;100808.78;;;13.25;95.50
49835;BME280;35729;52.090;13.162;2022-10-16T06:06:12;100805.25;;;13.26;95.60
49835;BME280;35729;52.090;13.162;2022-10-16T06:08:45;100813.09;;;13.27;95.63
49835;BME280;35729;52.090;13.162;2022-10-16T06:11:15;100813.03;;;13.29;95.86
49835;BME280;35729;52.090;13.162;2022-10-16T06:13:44;100818.25;;;13.30;95.77
49835;BME280;35729;52.090;13.162;2022-10-16T06:16:13;100815.56;;;13.32;95.97
49835;BME280;35729;52.090;13.162;2022-10-16T06:18:41;100814.63;;;13.34;95.95
49835;BME280;35729;52.090;13.162;2022-10-16T06:21:10;100822.44;;;13.38;96.34
49835;BME280;35729;52.090;13.162;2022-10-16T06:23:39;100821.44;;;13.42;96.60
49835;BME280;35729;52.090;13.162;2022-10-16T06:26:12;100826.56;;;13.46;96.19
49835;BME280;35729;52.090;13.162;2022-10-16T06:28:41;100824.69;;;13.50;96.58
49835;BME280;35729;52.090;13.162;2022-10-16T06:31:11;100842.91;;;13.58;96.70
49835;BME280;35729;52.090;13.162;2022-10-16T06:33:40;100850.66;;;13.62;97.26
49835;BME280;35729;52.090;13.162;2022-10-16T06:36:12;100853.94;;;13.69;97.06
49835;BME280;35729;52.090;13.162;2022-10-16T06:38:41;100859.94;;;13.74;96.76
49835;BME280;35729;52.090;13.162;2022-10-16T06:41:14;100872.91;;;13.80;96.92
49835;BME280;35729;52.090;13.162;2022-10-16T06:43:43;100877.09;;;13.88;96.87
49835;BME280;35729;52.090;13.162;2022-10-16T06:46:13;100876.06;;;13.92;96.85
49835;BME280;35729;52.090;13.162;2022-10-16T06:48:42;100870.56;;;13.98;96.77
49835;BME280;35729;52.090;13.162;2022-10-16T06:51:13;100872.19;;;14.02;96.37
49835;BME280;35729;52.090;13.162;2022-10-16T06:53:43;100871.16;;;14.06;96.34
49835;BME280;35729;52.090;13.162;2022-10-16T06:56:16;100866.66;;;14.10;96.28
49835;BME280;35729;52.090;13.162;2022-10-16T06:58:45;100872.75;;;14.12;96.29
49835;BME280;35729;52.090;13.162;2022-10-16T07:01:15;100879.69;;;14.14;95.99
49835;BME280;35729;52.090;13.162;2022-10-16T07:03:45;100877.84;;;14.16;96.00
49835;BME280;35729;52.090;13.162;2022-10-16T07:06:15;100891.00;;;14.18;95.99
49835;BME280;35729;52.090;13.162;2022-10-16T07:08:45;100903.25;;;14.19;96.15
49835;BME280;35729;52.090;13.162;2022-10-16T07:11:18;100911.16;;;14.21;95.71
49835;BME280;35729;52.090;13.162;2022-10-16T07:13:48;100917.22;;;14.23;95.61
49835;BME280;35729;52.090;13.162;2022-10-16T07:16:18;100911.91;;;14.24;95.49
49835;BME280;35729;52.090;13.162;2022-10-16T07:18:47;100901.28;;;14.26;95.75
49835;BME280;35729;52.090;13.162;2022-10-16T07:21:19;100909.00;;;14.32;95.58
49835;BME280;35729;52.090;13.162;2022-10-16T07:23:50;100903.50;;;14.38;95.33
49835;BME280;35729;52.090;13.162;2022-10-16T07:26:21;100899.78;;;14.44;95.33
49835;BME280;35729;52.090;13.162;2022-10-16T07:28:50;100907.41;;;14.52;95.28
49835;BME280;35729;52.090;13.162;2022-10-16T07:31:20;100908.03;;;14.60;94.96
49835;BME280;35729;52.090;13.162;2022-10-16T07:33:49;100901.53;;;14.70;94.86
49835;BME280;35729;52.090;13.162;2022-10-16T07:36:18;100902.09;;;14.78;94.22
49835;BME280;35729;52.090;13.162;2022-10-16T07:38:47;100915.81;;;14.88;94.05
49835;BME280;35729;52.090;13.162;2022-10-16T07:41:17;100915.53;;;14.96;93.34
49835;BME280;35729;52.090;13.162;2022-10-16T07:43:50;100902.97;;;15.03;93.02
49835;BME280;35729;52.090;13.162;2022-10-16T07:46:21;100907.97;;;15.10;92.89
49835;BME280;35729;52.090;13.162;2022-10-16T07:48:50;100912.94;;;15.18;92.29
49835;BME280;35729;52.090;13.162;2022-10-16T07:51:20;100921.50;;;15.25;91.99
49835;BME280;35729;52.090;13.162;2022-10-16T07:53:49;100929.13;;;15.32;91.63
49835;BME280;35729;52.090;13.162;2022-10-16T07:56:19;100930.63;;;15.40;91.03
49835;BME280;35729;52.090;13.162;2022-10-16T07:58:51;100938.31;;;15.46;90.54
49835;BME280;35729;52.090;13.162;2022-10-16T08:01:21;100949.44;;;15.54;90.36
49835;BME280;35729;52.090;13.162;2022-10-16T08:03:51;100950.13;;;15.59;89.95
49835;BME280;35729;52.090;13.162;2022-10-16T08:06:21;100942.91;;;15.63;89.50
49835;BME280;35729;52.090;13.162;2022-10-16T08:08:50;100940.19;;;15.66;89.85
49835;BME280;35729;52.090;13.162;2022-10-16T08:11:19;100942.56;;;15.72;89.23
49835;BME280;35729;52.090;13.162;2022-10-16T08:13:51;100942.38;;;15.77;89.06
49835;BME280;35729;52.090;13.162;2022-10-16T08:16:20;100955.34;;;15.85;88.63
49835;BME280;35729;52.090;13.162;2022-10-16T08:18:49;100963.97;;;15.90;88.18
49835;BME280;35729;52.090;13.162;2022-10-16T08:21:19;100959.38;;;15.93;87.67
49835;BME280;35729;52.090;13.162;2022-10-16T08:23:48;100979.44;;;15.99;87.91
49835;BME280;35729;52.090;13.162;2022-10-16T08:26:17;100967.75;;;16.05;87.34
49835;BME280;35729;52.090;13.162;2022-10-16T08:28:45;100964.97;;;16.08;86.90
49835;BME280;35729;52.090;13.162;2022-10-16T08:31:16;100968.13;;;16.18;86.89
49835;BME280;35729;52.090;13.162;2022-10-16T08:33:45;100973.94;;;16.26;86.27
49835;BME280;35729;52.090;13.162;2022-10-16T08:36:15;100972.75;;;16.33;86.09
49835;BME280;35729;52.090;13.162;2022-10-16T08:38:47;100971.50;;;16.42;85.44
49835;BME280;35729;52.090;13.162;2022-10-16T08:41:27;100967.78;;;16.46;84.47
49835;BME280;35729;52.090;13.162;2022-10-16T08:47:02;100982.44;;;16.55;83.50
49835;BME280;35729;52.090;13.162;2022-10-16T08:49:33;101002.56;;;16.59;83.58
49835;BME280;35729;52.090;13.162;2022-10-16T08:52:04;100992.75;;;16.61;83.34
49835;BME280;35729;52.090;13.162;2022-10-16T08:54:36;100994.41;;;16.64;82.98
49835;BME280;35729;52.090;13.162;2022-10-16T08:57:09;100996.91;;;16.67;82.26
49835;BME280;35729;52.090;13.162;2022-10-16T08:59:39;100981.75;;;16.70;82.01
49835;BME280;35729;52.090;13.162;2022-10-16T09:02:24;100983.38;;;16.74;81.30
49835;BME280;35729;52.090;13.162;2022-10-16T09:05:18;100984.94;;;16.78;79.37
49835;BME280;35729;52.090;13.162;2022-10-16T09:07:59;101006.06;;;16.80;78.92
49835;BME280;35729;52.090;13.162;2022-10-16T09:10:38;101016.47;;;16.85;79.21
49835;BME280;35729;52.090;13.162;2022-10-16T09:13:18;101020.72;;;16.89;79.16
49835;BME280;35729;52.090;13.162;2022-10-16T09:15:54;101018.91;;;16.91;78.42
49835;BME280;35729;52.090;13.162;2022-10-16T09:18:30;101013.44;;;16.94;78.53
49835;BME280;35729;52.090;13.162;2022-10-16T09:21:09;101020.28;;;17.00;78.90
49835;BME280;35729;52.090;13.162;2022-10-16T09:23:40;101017.41;;;17.04;78.90
49835;BME280;35729;52.090;13.162;2022-10-16T09:26:11;101012.75;;;17.09;78.76
49835;BME280;35729;52.090;13.162;2022-10-16T09:28:40;101013.56;;;17.12;78.59
49835;BME280;35729;52.090;13.162;2022-10-16T09:31:15;101022.16;;;17.17;77.78
49835;BME280;35729;52.090;13.162;2022-10-16T09:33:49;101032.63;;;17.20;77.77
49835;BME280;35729;52.090;13.162;2022-10-16T09:36:19;101020.16;;;17.22;77.75
49835;BME280;35729;52.090;13.162;2022-10-16T09:38:48;101027.03;;;17.26;77.56
49835;BME280;35729;52.090;13.162;2022-10-16T09:41:21;101027.75;;;17.30;77.46
49835;BME280;35729;52.090;13.162;2022-10-16T09:43:54;101024.00;;;17.35;77.10
49835;BME280;35729;52.090;13.162;2022-10-16T09:46:29;101030.03;;;17.39;75.58
49835;BME280;35729;52.090;13.162;2022-10-16T09:49:04;101038.66;;;17.42;76.34
49835;BME280;35729;52.090;13.162;2022-10-16T09:51:35;101033.88;;;17.51;76.86
49835;BME280;35729;52.090;13.162;2022-10-16T09:54:13;101031.81;;;17.57;76.05
49835;BME280;35729;52.090;13.162;2022-10-16T09:56:42;101035.09;;;17.63;76.01
49835;BME280;35729;52.090;13.162;2022-10-16T09:59:16;101036.69;;;17.67;75.90
49835;BME280;35729;52.090;13.162;2022-10-16T10:01:47;101044.59;;;17.68;75.45
49835;BME280;35729;52.090;13.162;2022-10-16T10:04:42;101037.34;;;17.72;75.78
49835;BME280;35729;52.090;13.162;2022-10-16T10:07:24;101044.13;;;17.78;75.17
49835;BME280;35729;52.090;13.162;2022-10-16T10:09:54;101051.00;;;17.82;75.70
49835;BME280;35729;52.090;13.162;2022-10-16T10:12:26;101064.06;;;17.86;75.12
49835;BME280;35729;52.090;13.162;2022-10-16T10:14:56;101063.00;;;17.90;75.24
49835;BME280;35729;52.090;13.162;2022-10-16T10:17:27;101050.38;;;17.96;73.99
49835;BME280;35729;52.090;13.162;2022-10-16T10:20:01;101054.63;;;18.00;74.00
49835;BME280;35729;52.090;13.162;2022-10-16T10:22:42;101058.78;;;18.05;73.54
49835;BME280;35729;52.090;13.162;2022-10-16T10:25:30;101058.66;;;18.09;70.79
49835;BME280;35729;52.090;13.162;2022-10-16T10:28:22;101063.72;;;18.13;71.86
49835;BME280;35729;52.090;13.162;2022-10-16T10:30:58;101058.34;;;18.15;70.70
49835;BME280;35729;52.090;13.162;2022-10-16T10:33:34;101058.19;;;18.18;70.65
49835;BME280;35729;52.090;13.162;2022-10-16T10:36:16;101063.34;;;18.21;69.56
49835;BME280;35729;52.090;13.162;2022-10-16T10:38:50;101071.09;;;18.26;70.44
49835;BME280;35729;52.090;13.162;2022-10-16T10:44:41;101077.63;;;18.37;68.19
49835;BME280;35729;52.090;13.162;2022-10-16T10:47:29;101079.88;;;18.45;69.17
49835;BME280;35729;52.090;13.162;2022-10-16T10:50:09;101073.31;;;18.52;67.42
49835;BME280;35729;52.090;13.162;2022-10-16T10:52:53;101085.44;;;18.58;67.77
49835;BME280;35729;52.090;13.162;2022-10-16T10:55:33;101075.53;;;18.62;66.99
49835;BME280;35729;52.090;13.162;2022-10-16T10:58:24;101081.59;;;18.64;66.71
49835;BME280;35729;52.090;13.162;2022-10-16T11:01:01;101084.97;;;18.67;66.52
49835;BME280;35729;52.090;13.162;2022-10-16T11:03:44;101079.53;;;18.70;64.81
49835;BME280;35729;52.090;13.162;2022-10-16T11:06:17;101077.63;;;18.72;65.58
49835;BME280;35729;52.090;13.162;2022-10-16T11:08:55;101086.31;;;18.76;64.76
49835;BME280;35729;52.090;13.162;2022-10-16T11:11:30;101087.09;;;18.78;64.48
49835;BME280;35729;52.090;13.162;2022-10-16T11:14:04;101091.72;;;18.75;64.02
49835;BME280;35729;52.090;13.162;2022-10-16T11:16:37;101087.25;;;18.75;64.36
49835;BME280;35729;52.090;13.162;2022-10-16T11:19:12;101095.22;;;18.75;63.88
49835;BME280;35729;52.090;13.162;2022-10-16T11:21:47;101087.19;;;18.77;63.61
49835;BME280;35729;52.090;13.162;2022-10-16T11:24:23;101092.34;;;18.80;63.32
49835;BME280;35729;52.090;13.162;2022-10-16T11:27:00;101094.06;;;18.81;63.24
49835;BME280;35729;52.090;13.162;2022-10-16T11:29:34;101096.63;;;18.82;63.37
49835;BME280;35729;52.090;13.162;2022-10-16T11:32:10;101097.47;;;18.83;63.16
49835;BME280;35729;52.090;13.162;2022-10-16T11:34:48;101097.66;;;18.80;63.27
49835;BME280;35729;52.090;13.162;2022-10-16T11:37:18;101095.16;;;18.77;62.34
49835;BME280;35729;52.090;13.162;2022-10-16T11:39:52;101096.09;;;18.76;63.72
49835;BME280;35729;52.090;13.162;2022-10-16T11:42:26;101092.56;;;18.75;63.07
49835;BME280;35729;52.090;13.162;2022-10-16T11:45:03;101093.44;;;18.76;63.63
49835;BME280;35729;52.090;13.162;2022-10-16T11:47:40;101092.50;;;18.77;62.98
49835;BME280;35729;52.090;13.162;2022-10-16T11:50:19;101091.53;;;18.78;62.24
49835;BME280;35729;52.090;13.162;2022-10-16T11:52:55;101089.75;;;18.78;63.65
49835;BME280;35729;52.090;13.162;2022-10-16T11:55:32;101093.19;;;18.80;62.91
49835;BME280;35729;52.090;13.162;2022-10-16T11:58:06;101102.97;;;18.80;63.01
49835;BME280;35729;52.090;13.162;2022-10-16T12:00:39;101098.50;;;18.80;62.93
49835;BME280;35729;52.090;13.162;2022-10-16T12:03:15;101098.28;;;18.85;63.01
49835;BME280;35729;52.090;13.162;2022-10-16T12:05:58;101100.66;;;18.91;62.76
49835;BME280;35729;52.090;13.162;2022-10-16T12:08:29;101102.22;;;18.95;62.43
49835;BME280;35729;52.090;13.162;2022-10-16T12:11:19;101098.31;;;19.02;62.94
49835;BME280;35729;52.090;13.162;2022-10-16T12:13:50;101106.59;;;19.14;62.84
49835;BME280;35729;52.090;13.162;2022-10-16T12:16:23;101098.19;;;19.21;62.55
49835;BME280;35729;52.090;13.162;2022-10-16T12:19:10;101089.81;;;19.29;61.96
49835;BME280;35729;52.090;13.162;2022-10-16T12:21:39;101100.13;;;19.35;62.37
49835;BME280;35729;52.090;13.162;2022-10-16T12:24:20;101097.94;;;19.44;61.85
49835;BME280;35729;52.090;13.162;2022-10-16T12:26:52;101092.03;;;19.54;62.33
49835;BME280;35729;52.090;13.162;2022-10-16T12:29:30;101094.88;;;19.67;61.54
49835;BME280;35729;52.090;13.162;2022-10-16T12:32:01;101085.75;;;19.89;61.62
49835;BME280;35729;52.090;13.162;2022-10-16T12:34:37;101099.56;;;20.12;58.21
49835;BME280;35729;52.090;13.162;2022-10-16T12:37:13;101100.94;;;20.35;58.84
49835;BME280;35729;52.090;13.162;2022-10-16T12:39:43;101100.38;;;20.60;57.20
49835;BME280;35729;52.090;13.162;2022-10-16T12:42:32;101116.38;;;20.76;54.14
49835;BME280;35729;52.090;13.162;2022-10-16T12:45:01;101111.25;;;20.88;55.19
49835;BME280;35729;52.090;13.162;2022-10-16T12:47:48;101115.31;;;21.09;52.82
49835;BME280;35729;52.090;13.162;2022-10-16T12:50:32;101118.19;;;21.35;52.75
49835;BME280;35729;52.090;13.162;2022-10-16T12:53:02;101119.47;;;21.58;53.99
49835;BME280;35729;52.090;13.162;2022-10-16T12:55:44;101113.66;;;21.80;52.32
49835;BME280;35729;52.090;13.162;2022-10-16T12:58:27;101111.81;;;21.95;50.49
49835;BME280;35729;52.090;13.162;2022-10-16T13:01:07;101111.44;;;22.02;50.56
49835;BME280;35729;52.090;13.162;2022-10-16T13:03:59;101133.81;;;22.13;49.73
49835;BME280;35729;52.090;13.162;2022-10-16T13:06:37;101124.13;;;22.25;51.42
49835;BME280;35729;52.090;13.162;2022-10-16T13:09:30;101119.84;;;22.23;50.63
49835;BME280;35729;52.090;13.162;2022-10-16T13:12:18;101115.47;;;22.22;49.27
49835;BME280;35729;52.090;13.162;2022-10-16T13:15:06;101119.94;;;22.21;51.20
49835;BME280;35729;52.090;13.162;2022-10-16T13:17:43;101119.41;;;22.16;49.94